createdAt,value
2019-02-05T00:00:29.199Z,993.65
2019-02-05T00:01:29.380Z,993.63
2019-02-05T00:02:29.557Z,993.61
2019-02-05T00:03:29.737Z,993.58
2019-02-05T00:04:29.916Z,993.59
2019-02-05T00:05:30.093Z,993.60
2019-02-05T00:06:30.276Z,993.64
2019-02-05T00:07:30.458Z,993.60
2019-02-05T00:08:30.640Z,993.63
2019-02-05T00:09:30.812Z,993.64
2019-02-05T00:10:30.994Z,993.72
2019-02-05T00:11:31.172Z,993.70
2019-02-05T00:12:31.354Z,993.74
2019-02-05T00:13:31.531Z,993.72
2019-02-05T00:14:31.715Z,993.70
2019-02-05T00:15:31.894Z,993.70
2019-02-05T00:16:32.076Z,993.75
2019-02-05T00:17:32.253Z,993.75
2019-02-05T00:18:32.434Z,993.75
2019-02-05T00:19:32.611Z,993.78
2019-02-05T00:20:32.793Z,993.77
2019-02-05T00:21:32.971Z,993.78
2019-02-05T00:22:33.154Z,993.77
2019-02-05T00:23:33.338Z,993.79
2019-02-05T00:24:33.509Z,993.81
2019-02-05T00:25:33.701Z,993.82
2019-02-05T00:26:33.872Z,993.77
2019-02-05T00:27:34.047Z,993.79
2019-02-05T00:28:34.228Z,993.75
2019-02-05T00:29:34.423Z,993.82
2019-02-05T00:30:34.605Z,993.79
2019-02-05T00:31:34.784Z,993.83
2019-02-05T00:32:34.974Z,993.78
2019-02-05T00:33:35.151Z,993.75
2019-02-05T00:34:35.330Z,993.73
2019-02-05T00:35:35.505Z,993.71
2019-02-05T00:36:35.682Z,993.75
2019-02-05T00:37:35.876Z,993.72
2019-02-05T00:38:36.049Z,993.68
2019-02-05T00:39:36.231Z,993.64
2019-02-05T00:40:36.412Z,993.67
2019-02-05T00:41:36.582Z,993.67
2019-02-05T00:42:36.760Z,993.65
2019-02-05T00:43:36.940Z,993.67
2019-02-05T00:44:37.121Z,993.69
2019-02-05T00:45:37.300Z,993.66
2019-02-05T00:46:37.480Z,993.66
2019-02-05T00:47:37.661Z,993.63
2019-02-05T00:48:37.840Z,993.63
2019-02-05T00:49:38.017Z,993.67
2019-02-05T00:50:38.198Z,993.63
2019-02-05T00:51:38.378Z,993.63
2019-02-05T00:52:38.555Z,993.60
2019-02-05T00:53:38.740Z,993.65
2019-02-05T00:54:38.922Z,993.64
2019-02-05T00:55:39.100Z,993.60
2019-02-05T00:56:39.277Z,993.62
2019-02-05T00:57:39.463Z,993.60
2019-02-05T00:58:39.648Z,993.57
2019-02-05T00:59:39.823Z,993.64
2019-02-05T01:00:40.000Z,993.66
2019-02-05T01:01:40.191Z,993.66
2019-02-05T01:02:40.372Z,993.65
2019-02-05T01:03:40.550Z,993.65
2019-02-05T01:04:40.729Z,993.64
2019-02-05T01:05:40.907Z,993.65
2019-02-05T01:06:41.112Z,993.68
2019-02-05T01:07:41.276Z,993.63
2019-02-05T01:08:41.463Z,993.63
2019-02-05T01:09:41.639Z,993.66
2019-02-05T01:10:41.850Z,993.61
2019-02-05T01:11:41.998Z,993.67
2019-02-05T01:12:42.172Z,993.69
2019-02-05T01:13:42.347Z,993.64
2019-02-05T01:14:42.537Z,993.66
2019-02-05T01:15:42.713Z,993.66
2019-02-05T01:16:42.891Z,993.64
2019-02-05T01:17:43.070Z,993.61
2019-02-05T01:18:43.254Z,993.59
2019-02-05T01:19:43.456Z,993.55
2019-02-05T01:20:43.627Z,993.56
2019-02-05T01:21:43.804Z,993.58
2019-02-05T01:22:43.982Z,993.55
2019-02-05T01:23:44.162Z,993.52
2019-02-05T01:24:44.342Z,993.51
2019-02-05T01:25:44.520Z,993.54
2019-02-05T01:26:44.701Z,993.55
2019-02-05T01:27:44.882Z,993.53
2019-02-05T01:28:45.055Z,993.49
2019-02-05T01:29:45.246Z,993.41
2019-02-05T01:30:45.429Z,993.40
2019-02-05T01:31:45.605Z,993.33
2019-02-05T01:32:45.797Z,993.32
2019-02-05T01:33:45.970Z,993.31
2019-02-05T01:34:46.154Z,993.34
2019-02-05T01:35:46.349Z,993.27
2019-02-05T01:36:46.521Z,993.27
2019-02-05T01:37:46.702Z,993.25
2019-02-05T01:38:46.887Z,993.27
2019-02-05T01:39:47.066Z,993.22
2019-02-05T01:40:47.247Z,993.22
2019-02-05T01:41:47.422Z,993.22
2019-02-05T01:42:47.606Z,993.21
2019-02-05T01:43:47.788Z,993.20
2019-02-05T01:44:47.978Z,993.23
2019-02-05T01:45:48.149Z,993.22
2019-02-05T01:46:48.329Z,993.21
2019-02-05T01:47:48.508Z,993.21
2019-02-05T01:48:48.687Z,993.20
2019-02-05T01:49:48.866Z,993.20
2019-02-05T01:50:49.051Z,993.18
2019-02-05T01:51:49.239Z,993.17
2019-02-05T01:52:49.416Z,993.13
2019-02-05T01:53:49.594Z,993.11
2019-02-05T01:54:49.776Z,993.06
2019-02-05T01:55:49.951Z,993.03
2019-02-05T01:56:50.132Z,993.09
2019-02-05T01:57:50.308Z,993.14
2019-02-05T01:58:50.491Z,993.21
2019-02-05T01:59:50.672Z,993.23
2019-02-05T02:00:50.849Z,993.22
2019-02-05T02:01:51.028Z,993.22
2019-02-05T02:02:51.207Z,993.20
2019-02-05T02:03:51.392Z,993.19
2019-02-05T02:04:51.564Z,993.16
2019-02-05T02:05:51.747Z,993.18
2019-02-05T02:06:51.930Z,993.21
2019-02-05T02:07:52.110Z,993.22
2019-02-05T02:08:52.288Z,993.22
2019-02-05T02:09:52.458Z,993.19
2019-02-05T02:10:52.644Z,993.20
2019-02-05T02:11:52.851Z,993.18
2019-02-05T02:12:53.000Z,993.17
2019-02-05T02:13:53.178Z,993.18
2019-02-05T02:14:53.358Z,993.13
2019-02-05T02:15:53.532Z,993.10
2019-02-05T02:16:53.713Z,993.13
2019-02-05T02:17:53.904Z,993.09
2019-02-05T02:18:54.076Z,993.12
2019-02-05T02:19:54.257Z,993.15
2019-02-05T02:20:54.436Z,993.21
2019-02-05T02:21:54.614Z,993.21
2019-02-05T02:22:54.796Z,993.18
2019-02-05T02:23:54.970Z,993.14
2019-02-05T02:24:55.153Z,993.11
2019-02-05T02:25:55.336Z,993.10
2019-02-05T02:26:55.514Z,993.06
2019-02-05T02:27:55.698Z,993.11
2019-02-05T02:28:55.869Z,993.06
2019-02-05T02:29:56.058Z,993.07
2019-02-05T02:30:56.247Z,993.05
2019-02-05T02:31:56.421Z,993.02
2019-02-05T02:32:56.601Z,993.08
2019-02-05T02:33:56.797Z,993.10
2019-02-05T02:34:56.958Z,993.16
2019-02-05T02:35:57.138Z,993.15
2019-02-05T02:36:57.310Z,993.16
2019-02-05T02:37:57.490Z,993.16
2019-02-05T02:38:57.668Z,993.13
2019-02-05T02:39:57.850Z,993.12
2019-02-05T02:40:58.027Z,993.09
2019-02-05T02:41:58.204Z,993.11
2019-02-05T02:42:58.384Z,993.12
2019-02-05T02:43:58.561Z,993.14
2019-02-05T02:44:58.743Z,993.14
2019-02-05T02:45:58.921Z,993.15
2019-02-05T02:46:59.104Z,993.14
2019-02-05T02:47:59.291Z,993.12
2019-02-05T02:48:59.469Z,993.14
2019-02-05T02:49:59.651Z,993.13
2019-02-05T02:50:59.826Z,993.15
2019-02-05T02:52:00.009Z,993.18
2019-02-05T02:53:00.188Z,993.18
2019-02-05T02:54:00.376Z,993.17
2019-02-05T02:55:00.690Z,993.13
2019-02-05T02:56:00.758Z,993.15
2019-02-05T02:57:04.982Z,993.06
2019-02-05T02:58:01.110Z,993.04
2019-02-05T02:59:01.285Z,993.03
2019-02-05T03:00:01.476Z,993.03
2019-02-05T03:01:01.643Z,993.07
2019-02-05T03:02:01.826Z,993.08
2019-02-05T03:03:02.002Z,993.03
2019-02-05T03:04:02.183Z,992.97
2019-02-05T03:05:02.358Z,992.94
2019-02-05T03:06:02.534Z,992.90
2019-02-05T03:07:02.716Z,992.93
2019-02-05T03:08:02.899Z,992.92
2019-02-05T03:09:03.095Z,992.93
2019-02-05T03:10:03.259Z,992.90
2019-02-05T03:11:03.434Z,992.85
2019-02-05T03:12:03.624Z,992.84
2019-02-05T03:13:03.798Z,992.80
2019-02-05T03:14:03.974Z,992.73
2019-02-05T03:15:04.150Z,992.74
2019-02-05T03:16:04.340Z,992.79
2019-02-05T03:17:04.518Z,992.77
2019-02-05T03:18:04.696Z,992.80
2019-02-05T03:19:04.874Z,992.77
2019-02-05T03:20:05.057Z,992.88
2019-02-05T03:21:05.241Z,992.89
2019-02-05T03:22:05.425Z,992.92
2019-02-05T03:23:05.597Z,992.98
2019-02-05T03:24:05.776Z,992.98
2019-02-05T03:25:05.948Z,992.97
2019-02-05T03:26:06.132Z,992.99
2019-02-05T03:27:17.263Z,993.02
2019-02-05T03:28:06.491Z,993.04
2019-02-05T03:29:06.667Z,993.05
2019-02-05T03:30:06.850Z,993.08
2019-02-05T03:31:07.029Z,993.05
2019-02-05T03:32:07.203Z,993.03
2019-02-05T03:33:07.383Z,993.10
2019-02-05T03:34:07.561Z,993.04
2019-02-05T03:35:07.752Z,993.05
2019-02-05T03:36:07.933Z,993.06
2019-02-05T03:37:08.107Z,993.08
2019-02-05T03:38:08.283Z,993.08
2019-02-05T03:39:08.468Z,993.06
2019-02-05T03:40:08.651Z,993.05
2019-02-05T03:41:08.839Z,993.07
2019-02-05T03:42:09.023Z,993.01
2019-02-05T03:43:09.210Z,992.97
2019-02-05T03:44:09.385Z,992.93
2019-02-05T03:45:09.561Z,992.94
2019-02-05T03:46:09.741Z,992.93
2019-02-05T03:47:09.919Z,992.91
2019-02-05T03:48:10.111Z,992.97
2019-02-05T03:49:10.278Z,992.92
2019-02-05T03:50:10.477Z,992.91
2019-02-05T03:51:10.642Z,992.96
2019-02-05T03:52:10.818Z,992.94
2019-02-05T03:53:10.998Z,992.96
2019-02-05T03:54:11.194Z,993.05
2019-02-05T03:55:11.367Z,993.08
2019-02-05T03:56:11.543Z,993.07
2019-02-05T03:57:11.721Z,993.06
2019-02-05T03:58:11.897Z,993.13
2019-02-05T03:59:12.078Z,993.08
2019-02-05T04:00:12.266Z,993.11
2019-02-05T04:01:12.448Z,993.13
2019-02-05T04:02:12.617Z,993.08
2019-02-05T04:03:12.799Z,993.08
2019-02-05T04:04:12.977Z,993.09
2019-02-05T04:05:13.163Z,993.11
2019-02-05T04:06:13.348Z,993.15
2019-02-05T04:07:13.522Z,993.11
2019-02-05T04:08:13.709Z,993.11
2019-02-05T04:09:13.885Z,993.06
2019-02-05T04:10:14.071Z,993.14
2019-02-05T04:11:14.255Z,993.16
2019-02-05T04:12:14.426Z,993.17
2019-02-05T04:13:14.603Z,993.18
2019-02-05T04:14:14.786Z,993.18
2019-02-05T04:15:14.963Z,993.22
2019-02-05T04:16:15.142Z,993.19
2019-02-05T04:17:15.325Z,993.22
2019-02-05T04:18:15.501Z,993.20
2019-02-05T04:19:15.674Z,993.18
2019-02-05T04:20:15.862Z,993.20
2019-02-05T04:21:16.034Z,993.21
2019-02-05T04:22:16.209Z,993.18
2019-02-05T04:23:16.395Z,993.17
2019-02-05T04:24:17.389Z,993.18
2019-02-05T04:25:16.691Z,993.14
2019-02-05T04:26:16.873Z,993.12
2019-02-05T04:27:17.051Z,993.10
2019-02-05T04:28:17.235Z,993.08
2019-02-05T04:29:17.411Z,993.05
2019-02-05T04:30:17.596Z,993.10
2019-02-05T04:31:17.772Z,993.12
2019-02-05T04:32:17.950Z,993.12
2019-02-05T04:33:18.127Z,993.13
2019-02-05T04:34:18.318Z,993.11
2019-02-05T04:35:18.478Z,993.16
2019-02-05T04:36:18.660Z,993.19
2019-02-05T04:37:18.841Z,993.24
2019-02-05T04:38:19.026Z,993.25
2019-02-05T04:39:19.209Z,993.27
2019-02-05T04:40:19.399Z,993.24
2019-02-05T04:41:19.563Z,993.31
2019-02-05T04:42:19.749Z,993.26
2019-02-05T04:43:19.921Z,993.24
2019-02-05T04:44:20.109Z,993.25
2019-02-05T04:45:20.290Z,993.24
2019-02-05T04:46:20.480Z,993.29
2019-02-05T04:47:20.661Z,993.25
2019-02-05T04:48:20.841Z,993.26
2019-02-05T04:49:21.016Z,993.27
2019-02-05T04:50:21.205Z,993.28
2019-02-05T04:51:21.379Z,993.28
2019-02-05T04:52:21.554Z,993.22
2019-02-05T04:53:21.739Z,993.24
2019-02-05T04:54:21.942Z,993.25
2019-02-05T04:55:22.108Z,993.24
2019-02-05T04:56:22.289Z,993.24
2019-02-05T04:57:22.467Z,993.28
2019-02-05T04:58:22.648Z,993.26
2019-02-05T04:59:22.828Z,993.24
2019-02-05T05:00:23.006Z,993.29
2019-02-05T05:01:23.181Z,993.28
2019-02-05T05:02:23.368Z,993.29
2019-02-05T05:03:23.551Z,993.27
2019-02-05T05:04:23.720Z,993.29
2019-02-05T05:05:23.901Z,993.27
2019-02-05T05:06:24.079Z,993.29
2019-02-05T05:07:24.259Z,993.30
2019-02-05T05:08:24.437Z,993.25
2019-02-05T05:09:24.623Z,993.24
2019-02-05T05:10:24.811Z,993.26
2019-02-05T05:11:24.988Z,993.27
2019-02-05T05:12:25.170Z,993.29
2019-02-05T05:13:25.345Z,993.31
2019-02-05T05:14:25.530Z,993.24
2019-02-05T05:15:25.704Z,993.26
2019-02-05T05:16:25.878Z,993.33
2019-02-05T05:17:26.064Z,993.29
2019-02-05T05:18:26.265Z,993.27
2019-02-05T05:19:26.420Z,993.24
2019-02-05T05:20:26.608Z,993.26
2019-02-05T05:21:26.783Z,993.23
2019-02-05T05:22:26.972Z,993.18
2019-02-05T05:23:27.145Z,993.16
2019-02-05T05:24:27.321Z,993.16
2019-02-05T05:25:27.499Z,993.16
2019-02-05T05:26:27.676Z,993.17
2019-02-05T05:27:27.858Z,993.15
2019-02-05T05:28:28.040Z,993.15
2019-02-05T05:29:28.219Z,993.13
2019-02-05T05:30:28.396Z,993.11
2019-02-05T05:31:28.573Z,993.12
2019-02-05T05:32:28.754Z,993.17
2019-02-05T05:33:28.937Z,993.13
2019-02-05T05:34:29.115Z,993.15
2019-02-05T05:35:40.618Z,993.15
2019-02-05T05:36:29.475Z,993.15
2019-02-05T05:37:29.654Z,993.20
2019-02-05T05:38:29.836Z,993.22
2019-02-05T05:39:30.012Z,993.25
2019-02-05T05:40:30.198Z,993.31
2019-02-05T05:41:30.366Z,993.29
2019-02-05T05:42:30.545Z,993.26
2019-02-05T05:43:30.723Z,993.30
2019-02-05T05:44:30.903Z,993.28
2019-02-05T05:45:31.084Z,993.26
2019-02-05T05:46:31.263Z,993.23
2019-02-05T05:47:31.440Z,993.22
2019-02-05T05:48:31.617Z,993.25
2019-02-05T05:49:31.795Z,993.27
2019-02-05T05:50:31.978Z,993.29
2019-02-05T05:51:32.159Z,993.26
2019-02-05T05:52:32.343Z,993.23
2019-02-05T05:53:32.520Z,993.23
2019-02-05T05:54:32.706Z,993.19
2019-02-05T05:55:32.884Z,993.21
2019-02-05T05:56:33.059Z,993.18
2019-02-05T05:57:33.243Z,993.19
2019-02-05T05:58:33.424Z,993.21
2019-02-05T05:59:33.605Z,993.19
2019-02-05T06:00:33.787Z,993.20
2019-02-05T06:01:33.969Z,993.19
2019-02-05T06:02:34.149Z,993.21
2019-02-05T06:03:34.331Z,993.15
2019-02-05T06:04:34.509Z,993.19
2019-02-05T06:05:34.693Z,993.20
2019-02-05T06:06:34.880Z,993.25
2019-02-05T06:07:35.051Z,993.26
2019-02-05T06:08:35.227Z,993.27
2019-02-05T06:09:35.413Z,993.28
2019-02-05T06:10:35.592Z,993.28
2019-02-05T06:11:35.770Z,993.30
2019-02-05T06:12:35.946Z,993.29
2019-02-05T06:13:36.121Z,993.31
2019-02-05T06:14:36.300Z,993.29
2019-02-05T06:15:36.522Z,993.31
2019-02-05T06:16:36.666Z,993.29
2019-02-05T06:17:36.847Z,993.34
2019-02-05T06:18:37.024Z,993.34
2019-02-05T06:19:37.202Z,993.36
2019-02-05T06:20:37.382Z,993.38
2019-02-05T06:21:37.561Z,993.42
2019-02-05T06:22:37.745Z,993.40
2019-02-05T06:23:37.916Z,993.45
2019-02-05T06:24:38.101Z,993.44
2019-02-05T06:25:38.276Z,993.42
2019-02-05T06:26:38.464Z,993.39
2019-02-05T06:27:38.643Z,993.43
2019-02-05T06:28:38.838Z,993.41
2019-02-05T06:29:39.014Z,993.38
2019-02-05T06:30:39.198Z,993.42
2019-02-05T06:31:39.368Z,993.41
2019-02-05T06:32:39.557Z,993.42
2019-02-05T06:33:39.738Z,993.46
2019-02-05T06:34:39.927Z,993.44
2019-02-05T06:35:40.101Z,993.44
2019-02-05T06:36:40.268Z,993.47
2019-02-05T06:37:40.453Z,993.46
2019-02-05T06:38:40.624Z,993.48
2019-02-05T06:39:40.812Z,993.51
2019-02-05T06:40:40.987Z,993.52
2019-02-05T06:41:41.169Z,993.44
2019-02-05T06:42:41.348Z,993.51
2019-02-05T06:43:41.525Z,993.52
2019-02-05T06:44:41.705Z,993.48
2019-02-05T06:45:41.894Z,993.55
2019-02-05T06:46:42.070Z,993.49
2019-02-05T06:47:42.249Z,993.53
2019-02-05T06:48:42.429Z,993.53
2019-02-05T06:49:42.609Z,993.52
2019-02-05T06:50:42.791Z,993.51
2019-02-05T06:51:42.975Z,993.55
2019-02-05T06:52:43.155Z,993.57
2019-02-05T06:53:43.345Z,993.60
2019-02-05T06:54:43.524Z,993.63
2019-02-05T06:55:43.705Z,993.60
2019-02-05T06:56:43.881Z,993.70
2019-02-05T06:57:44.062Z,993.70
2019-02-05T06:58:46.408Z,993.73
2019-02-05T06:59:44.425Z,993.74
2019-02-05T07:00:44.610Z,993.78
2019-02-05T07:01:44.786Z,993.75
2019-02-05T07:02:44.965Z,993.75
2019-02-05T07:03:45.141Z,993.77
2019-02-05T07:04:45.325Z,993.79
2019-02-05T07:05:45.514Z,993.78
2019-02-05T07:06:45.691Z,993.88
2019-02-05T07:07:45.880Z,993.86
2019-02-05T07:08:46.052Z,993.93
2019-02-05T07:09:46.232Z,993.94
2019-02-05T07:10:46.414Z,993.98
2019-02-05T07:11:46.595Z,993.99
2019-02-05T07:12:46.793Z,994.00
2019-02-05T07:13:46.972Z,993.99
2019-02-05T07:14:47.151Z,994.01
2019-02-05T07:15:47.355Z,994.03
2019-02-05T07:16:47.515Z,994.02
2019-02-05T07:17:49.775Z,994.00
2019-02-05T07:18:47.890Z,994.02
2019-02-05T07:19:48.067Z,994.06
2019-02-05T07:20:48.252Z,994.02
2019-02-05T07:21:48.427Z,994.02
2019-02-05T07:22:48.613Z,994.02
2019-02-05T07:23:48.788Z,994.01
2019-02-05T07:24:48.963Z,994.10
2019-02-05T07:25:49.142Z,994.11
2019-02-05T07:26:49.318Z,994.08
2019-02-05T07:27:49.494Z,994.10
2019-02-05T07:28:58.118Z,994.13
2019-02-05T07:29:49.874Z,994.12
2019-02-05T07:30:50.056Z,994.12
2019-02-05T07:31:50.231Z,994.13
2019-02-05T07:32:50.410Z,994.10
2019-02-05T07:33:50.603Z,994.11
2019-02-05T07:34:50.780Z,994.12
2019-02-05T07:35:50.962Z,994.17
2019-02-05T07:36:51.137Z,994.18
2019-02-05T07:37:51.315Z,994.19
2019-02-05T07:38:51.498Z,994.25
2019-02-05T07:39:51.677Z,994.25
2019-02-05T07:40:51.867Z,994.25
2019-02-05T07:41:52.038Z,994.26
2019-02-05T07:42:52.222Z,994.33
2019-02-05T07:43:52.405Z,994.36
2019-02-05T07:44:52.586Z,994.36
2019-02-05T07:45:52.763Z,994.42
2019-02-05T07:46:52.943Z,994.40
2019-02-05T07:47:53.125Z,994.41
2019-02-05T07:48:53.306Z,994.44
2019-02-05T07:49:53.488Z,994.44
2019-02-05T07:50:53.672Z,994.45
2019-02-05T07:51:53.856Z,994.48
2019-02-05T07:52:54.032Z,994.47
2019-02-05T07:53:54.227Z,994.48
2019-02-05T07:54:54.404Z,994.47
2019-02-05T07:55:54.583Z,994.49
2019-02-05T07:56:54.763Z,994.46
2019-02-05T07:57:54.943Z,994.48
2019-02-05T07:58:55.118Z,994.48
2019-02-05T07:59:55.295Z,994.48
2019-02-05T08:00:55.473Z,994.50
2019-02-05T08:01:55.658Z,994.52
2019-02-05T08:02:55.837Z,994.54
2019-02-05T08:03:56.020Z,994.54
2019-02-05T08:04:56.197Z,994.54
2019-02-05T08:05:56.376Z,994.56
2019-02-05T08:06:56.555Z,994.54
2019-02-05T08:07:56.737Z,994.56
2019-02-05T08:08:56.919Z,994.56
2019-02-05T08:09:57.097Z,994.59
2019-02-05T08:10:57.277Z,994.58
2019-02-05T08:11:57.464Z,994.58
2019-02-05T08:12:57.641Z,994.59
2019-02-05T08:13:57.822Z,994.60
2019-02-05T08:14:58.002Z,994.61
2019-02-05T08:15:58.255Z,994.61
2019-02-05T08:16:58.365Z,994.59
2019-02-05T08:17:58.546Z,994.58
2019-02-05T08:18:58.732Z,994.65
2019-02-05T08:19:58.910Z,994.64
2019-02-05T08:20:59.091Z,994.63
2019-02-05T08:21:59.268Z,994.65
2019-02-05T08:22:59.448Z,994.66
2019-02-05T08:23:59.624Z,994.65
2019-02-05T08:24:59.806Z,994.60
2019-02-05T08:25:59.981Z,994.60
2019-02-05T08:27:00.161Z,994.63
2019-02-05T08:28:00.339Z,994.65
2019-02-05T08:29:00.525Z,994.62
2019-02-05T08:30:00.714Z,994.62
2019-02-05T08:31:00.897Z,994.60
2019-02-05T08:32:01.076Z,994.59
2019-02-05T08:33:01.257Z,994.56
2019-02-05T08:34:03.304Z,994.52
2019-02-05T08:35:01.619Z,994.59
2019-02-05T08:36:01.805Z,994.57
2019-02-05T08:37:01.975Z,994.58
2019-02-05T08:38:02.168Z,994.60
2019-02-05T08:39:02.337Z,994.58
2019-02-05T08:40:02.523Z,994.60
2019-02-05T08:41:02.707Z,994.58
2019-02-05T08:42:02.885Z,994.62
2019-02-05T08:43:03.070Z,994.61
2019-02-05T08:44:03.246Z,994.64
2019-02-05T08:45:03.436Z,994.62
2019-02-05T08:46:03.612Z,994.64
2019-02-05T08:47:03.795Z,994.59
2019-02-05T08:48:03.990Z,994.62
2019-02-05T08:49:04.155Z,994.59
2019-02-05T08:50:04.339Z,994.58
2019-02-05T08:51:04.537Z,994.61
2019-02-05T08:52:04.719Z,994.61
2019-02-05T08:53:04.922Z,994.62
2019-02-05T08:54:05.106Z,994.62
2019-02-05T08:55:05.279Z,994.58
2019-02-05T08:56:05.473Z,994.62
2019-02-05T08:57:05.642Z,994.62
2019-02-05T08:58:05.811Z,994.53
2019-02-05T08:59:06.005Z,994.55
2019-02-05T09:00:06.186Z,994.57
2019-02-05T09:01:06.372Z,994.54
2019-02-05T09:02:06.547Z,994.60
2019-02-05T09:03:06.725Z,994.57
2019-02-05T09:04:06.910Z,994.62
2019-02-05T09:05:07.086Z,994.64
2019-02-05T09:06:07.279Z,994.64
2019-02-05T09:07:07.458Z,994.65
2019-02-05T09:08:07.627Z,994.64
2019-02-05T09:09:07.825Z,994.66
2019-02-05T09:10:07.997Z,994.66
2019-02-05T09:11:08.182Z,994.71
2019-02-05T09:12:08.359Z,994.68
2019-02-05T09:13:08.538Z,994.70
2019-02-05T09:14:10.873Z,994.75
2019-02-05T09:15:08.913Z,994.71
2019-02-05T09:16:09.089Z,994.73
2019-02-05T09:17:09.268Z,994.77
2019-02-05T09:18:09.457Z,994.78
2019-02-05T09:19:09.648Z,994.77
2019-02-05T09:20:09.843Z,994.79
2019-02-05T09:21:10.008Z,994.80
2019-02-05T09:22:10.195Z,994.81
2019-02-05T09:23:10.374Z,994.82
2019-02-05T09:24:10.550Z,994.83
2019-02-05T09:25:10.734Z,994.87
2019-02-05T09:26:10.909Z,994.86
2019-02-05T09:27:11.101Z,994.86
2019-02-05T09:28:11.292Z,994.89
2019-02-05T09:29:11.460Z,994.88
2019-02-05T09:30:11.647Z,994.91
2019-02-05T09:31:11.838Z,994.88
2019-02-05T09:32:12.020Z,994.95
2019-02-05T09:33:12.195Z,995.03
2019-02-05T09:34:12.383Z,995.01
2019-02-05T09:35:12.571Z,994.99
2019-02-05T09:36:12.752Z,994.99
2019-02-05T09:37:12.937Z,995.03
2019-02-05T09:38:13.116Z,995.02
2019-02-05T09:39:13.302Z,995.02
2019-02-05T09:40:13.497Z,995.05
2019-02-05T09:41:13.674Z,995.09
2019-02-05T09:42:13.846Z,995.16
2019-02-05T09:43:14.025Z,995.18
2019-02-05T09:44:14.215Z,995.20
2019-02-05T09:45:14.411Z,995.22
2019-02-05T09:46:14.590Z,995.28
2019-02-05T09:47:14.767Z,995.21
2019-02-05T09:48:14.959Z,995.24
2019-02-05T09:49:15.140Z,995.21
2019-02-05T09:50:15.328Z,995.23
2019-02-05T09:51:15.499Z,995.32
2019-02-05T09:52:15.686Z,995.37
2019-02-05T09:53:15.861Z,995.37
2019-02-05T09:54:16.068Z,995.36
2019-02-05T09:55:16.251Z,995.35
2019-02-05T09:56:16.430Z,995.40
2019-02-05T09:57:16.615Z,995.36
2019-02-05T09:58:16.803Z,995.34
2019-02-05T09:59:16.984Z,995.33
2019-02-05T10:00:17.169Z,995.31
2019-02-05T10:01:17.346Z,995.34
2019-02-05T10:02:17.571Z,995.34
2019-02-05T10:03:17.716Z,995.34
2019-02-05T10:04:17.894Z,995.36
2019-02-05T10:05:18.078Z,995.34
2019-02-05T10:06:18.275Z,995.34
2019-02-05T10:07:18.456Z,995.40
2019-02-05T10:08:18.633Z,995.37
2019-02-05T10:09:18.815Z,995.40
2019-02-05T10:10:19.128Z,995.42
2019-02-05T10:11:19.179Z,995.41
2019-02-05T10:12:19.364Z,995.40
2019-02-05T10:13:19.547Z,995.39
2019-02-05T10:14:19.727Z,995.41
2019-02-05T10:15:19.918Z,995.41
2019-02-05T10:16:20.092Z,995.44
2019-02-05T10:17:20.274Z,995.46
2019-02-05T10:18:20.465Z,995.45
2019-02-05T10:19:20.666Z,995.45
2019-02-05T10:20:20.833Z,995.46
2019-02-05T10:21:21.008Z,995.46
2019-02-05T10:22:21.197Z,995.50
2019-02-05T10:23:21.371Z,995.50
2019-02-05T10:24:21.553Z,995.50
2019-02-05T10:25:21.733Z,995.52
2019-02-05T10:26:21.915Z,995.48
2019-02-05T10:27:22.092Z,995.45
2019-02-05T10:28:22.279Z,995.48
2019-02-05T10:29:22.456Z,995.49
2019-02-05T10:30:22.642Z,995.54
2019-02-05T10:31:22.827Z,995.53
2019-02-05T10:32:23.022Z,995.55
2019-02-05T10:33:23.198Z,995.58
2019-02-05T10:34:33.622Z,995.60
2019-02-05T10:35:23.564Z,995.59
2019-02-05T10:36:23.739Z,995.61
2019-02-05T10:37:23.925Z,995.62
2019-02-05T10:38:24.109Z,995.62
2019-02-05T10:39:24.284Z,995.61
2019-02-05T10:40:24.479Z,995.65
2019-02-05T10:41:24.651Z,995.64
2019-02-05T10:42:24.870Z,995.58
2019-02-05T10:43:25.011Z,995.57
2019-02-05T10:44:25.198Z,995.57
2019-02-05T10:45:25.384Z,995.64
2019-02-05T10:46:25.563Z,995.61
2019-02-05T10:47:25.746Z,995.61
2019-02-05T10:48:25.933Z,995.59
2019-02-05T10:49:26.125Z,995.53
2019-02-05T10:50:26.317Z,995.53
2019-02-05T10:51:26.510Z,995.52
2019-02-05T10:52:26.688Z,995.53
2019-02-05T10:53:26.876Z,995.55
2019-02-05T10:54:27.055Z,995.56
2019-02-05T10:55:27.239Z,995.60
2019-02-05T10:56:27.419Z,995.61
2019-02-05T10:57:27.599Z,995.62
2019-02-05T10:58:27.793Z,995.58
2019-02-05T10:59:27.978Z,995.60
2019-02-05T11:00:28.169Z,995.64
2019-02-05T11:01:28.351Z,995.61
2019-02-05T11:02:28.527Z,995.62
2019-02-05T11:03:28.718Z,995.55
2019-02-05T11:04:28.901Z,995.58
2019-02-05T11:05:29.082Z,995.55
2019-02-05T11:06:29.267Z,995.52
2019-02-05T11:07:29.444Z,995.56
2019-02-05T11:08:29.624Z,995.54
2019-02-05T11:09:29.806Z,995.55
2019-02-05T11:10:29.990Z,995.60
2019-02-05T11:11:30.169Z,995.60
2019-02-05T11:12:30.353Z,995.61
2019-02-05T11:13:30.533Z,995.59
2019-02-05T11:14:30.724Z,995.55
2019-02-05T11:15:30.902Z,995.53
2019-02-05T11:16:31.085Z,995.56
2019-02-05T11:17:31.264Z,995.53
2019-02-05T11:18:31.442Z,995.53
2019-02-05T11:19:31.625Z,995.57
2019-02-05T11:20:31.802Z,995.57
2019-02-05T11:21:32.035Z,995.53
2019-02-05T11:22:32.242Z,995.46
2019-02-05T11:23:32.401Z,995.52
2019-02-05T11:24:32.587Z,995.51
2019-02-05T11:25:32.768Z,995.51
2019-02-05T11:26:32.949Z,995.51
2019-02-05T11:27:33.126Z,995.47
2019-02-05T11:28:33.306Z,995.49
2019-02-05T11:29:33.489Z,995.46
2019-02-05T11:30:33.672Z,995.45
2019-02-05T11:31:33.851Z,995.46
2019-02-05T11:32:34.035Z,995.47
2019-02-05T11:33:34.214Z,995.49
2019-02-05T11:34:34.397Z,995.49
2019-02-05T11:35:34.585Z,995.49
2019-02-05T11:36:34.780Z,995.50
2019-02-05T11:37:34.969Z,995.51
2019-02-05T11:38:35.150Z,995.52
2019-02-05T11:39:35.348Z,995.53
2019-02-05T11:40:35.540Z,995.54
2019-02-05T11:41:35.713Z,995.52
2019-02-05T11:42:35.906Z,995.47
2019-02-05T11:43:36.095Z,995.46
2019-02-05T11:44:36.279Z,995.44
2019-02-05T11:45:36.458Z,995.48
2019-02-05T11:46:36.650Z,995.49
2019-02-05T11:47:36.848Z,995.46
2019-02-05T11:48:37.030Z,995.48
2019-02-05T11:49:37.209Z,995.45
2019-02-05T11:50:37.393Z,995.42
2019-02-05T11:51:37.576Z,995.44
2019-02-05T11:52:37.756Z,995.46
2019-02-05T11:53:37.941Z,995.40
2019-02-05T11:54:38.121Z,995.44
2019-02-05T11:55:38.303Z,995.44
2019-02-05T11:56:38.488Z,995.40
2019-02-05T11:57:38.664Z,995.38
2019-02-05T11:58:38.848Z,995.37
2019-02-05T11:59:39.027Z,995.35
2019-02-05T12:00:39.213Z,995.34
2019-02-05T12:01:39.454Z,995.38
2019-02-05T12:02:39.593Z,995.36
2019-02-05T12:03:39.762Z,995.39
2019-02-05T12:04:39.942Z,995.38
2019-02-05T12:05:40.120Z,995.37
2019-02-05T12:06:40.307Z,995.39
2019-02-05T12:07:40.484Z,995.39
2019-02-05T12:08:40.667Z,995.36
2019-02-05T12:09:40.848Z,995.38
2019-02-05T12:10:41.045Z,995.37
2019-02-05T12:11:41.220Z,995.31
2019-02-05T12:12:41.407Z,995.32
2019-02-05T12:13:41.586Z,995.30
2019-02-05T12:14:41.780Z,995.32
2019-02-05T12:15:41.974Z,995.34
2019-02-05T12:16:42.149Z,995.29
2019-02-05T12:17:42.337Z,995.28
2019-02-05T12:18:42.516Z,995.26
2019-02-05T12:19:42.699Z,995.26
2019-02-05T12:20:42.881Z,995.24
2019-02-05T12:21:43.060Z,995.22
2019-02-05T12:22:43.239Z,995.21
2019-02-05T12:23:43.424Z,995.25
2019-02-05T12:24:43.608Z,995.26
2019-02-05T12:25:43.793Z,995.23
2019-02-05T12:26:43.965Z,995.26
2019-02-05T12:27:44.150Z,995.27
2019-02-05T12:28:44.333Z,995.18
2019-02-05T12:29:44.515Z,995.18
2019-02-05T12:30:45.610Z,995.16